createdAt,value
2022-10-17T00:01:10.914Z,94.62
2022-10-17T00:06:16.099Z,95.14
2022-10-17T00:11:22.364Z,95.86
2022-10-17T00:16:26.543Z,95.83
2022-10-17T00:21:29.348Z,96.11
2022-10-17T00:26:33.901Z,96.23
2022-10-17T00:31:36.751Z,96.51
2022-10-17T00:36:39.579Z,96.65
2022-10-17T00:41:43.803Z,96.78
2022-10-17T00:46:46.489Z,97.09
2022-10-17T00:51:53.875Z,97.73
2022-10-17T00:56:58.499Z,98.08
2022-10-17T01:02:04.619Z,98.58
2022-10-17T01:07:07.330Z,98.71
2022-10-17T01:12:20.659Z,98.68
2022-10-17T01:17:35.957Z,98.89
2022-10-17T01:22:45.956Z,98.90
2022-10-17T01:28:11.373Z,99.05
2022-10-17T01:33:22.341Z,99.13
2022-10-17T01:38:31.909Z,99.40
2022-10-17T01:43:38.813Z,99.57
2022-10-17T01:48:45.994Z,99.47
2022-10-17T01:53:54.933Z,99.94
2022-10-17T01:59:03.170Z,100.00
2022-10-17T02:04:10.971Z,100.00
2022-10-17T02:09:22.938Z,100.00
2022-10-17T02:14:36.391Z,100.00
2022-10-17T02:19:56.115Z,100.00
2022-10-17T02:25:04.153Z,100.00
2022-10-17T02:30:12.493Z,100.00
2022-10-17T02:35:17.664Z,100.00
2022-10-17T02:40:23.875Z,100.00
2022-10-17T02:45:29.208Z,100.00
2022-10-17T02:50:42.728Z,100.00
2022-10-17T02:55:52.699Z,100.00
2022-10-17T03:00:55.612Z,100.00
2022-10-17T03:05:59.866Z,100.00
2022-10-17T03:11:02.675Z,100.00
2022-10-17T03:16:06.316Z,100.00
2022-10-17T03:21:10.388Z,100.00
2022-10-17T03:26:13.449Z,100.00
2022-10-17T03:31:18.134Z,100.00
2022-10-17T03:36:22.223Z,100.00
2022-10-17T03:41:24.976Z,100.00
2022-10-17T03:46:27.732Z,100.00
2022-10-17T03:51:34.081Z,100.00
2022-10-17T03:56:36.876Z,100.00
2022-10-17T04:01:39.665Z,100.00
2022-10-17T04:06:43.800Z,100.00
2022-10-17T04:11:46.585Z,100.00
2022-10-17T04:16:49.706Z,100.00
2022-10-17T04:21:53.767Z,100.00
2022-10-17T04:26:56.523Z,100.00
2022-10-17T04:31:59.246Z,100.00
2022-10-17T04:37:03.448Z,100.00
2022-10-17T04:42:06.173Z,100.00
2022-10-17T04:47:09.327Z,100.00
2022-10-17T04:52:16.558Z,100.00
2022-10-17T04:57:19.884Z,100.00
2022-10-17T05:02:22.747Z,100.00
2022-10-17T05:07:26.828Z,100.00
2022-10-17T05:12:29.799Z,100.00
2022-10-17T05:17:32.718Z,100.00
2022-10-17T05:22:39.670Z,100.00
2022-10-17T05:27:44.785Z,100.00
2022-10-17T05:32:47.616Z,100.00
2022-10-17T05:37:51.706Z,100.00
2022-10-17T05:42:54.442Z,100.00
2022-10-17T05:47:57.176Z,100.00
2022-10-17T05:53:01.400Z,100.00
2022-10-17T05:58:04.854Z,100.00
2022-10-17T06:03:07.565Z,100.00
2022-10-17T06:08:11.658Z,100.00
2022-10-17T06:13:14.367Z,100.00
2022-10-17T06:18:17.186Z,100.00
2022-10-17T06:23:21.287Z,99.92
2022-10-17T06:28:24.049Z,99.50
2022-10-17T06:33:26.960Z,99.16
2022-10-17T06:38:31.520Z,98.90
2022-10-17T06:43:34.228Z,98.51
2022-10-17T06:48:36.961Z,98.75
2022-10-17T06:53:41.853Z,98.18
2022-10-17T06:58:44.609Z,98.02
2022-10-17T07:03:49.592Z,98.34
2022-10-17T07:08:55.601Z,98.37
2022-10-17T07:13:58.340Z,98.59
2022-10-17T07:19:01.094Z,98.52
2022-10-17T07:24:07.089Z,98.68
2022-10-17T07:29:11.228Z,98.53
2022-10-17T07:34:13.926Z,98.73
2022-10-17T07:39:18.125Z,98.77
2022-10-17T07:44:21.051Z,98.82
2022-10-17T07:49:23.740Z,98.68
2022-10-17T07:54:27.945Z,98.63
2022-10-17T07:59:30.726Z,98.96
2022-10-17T08:04:34.783Z,98.92
2022-10-17T08:09:38.844Z,98.83
2022-10-17T08:14:41.610Z,98.81
2022-10-17T08:19:44.322Z,98.53
2022-10-17T08:24:48.467Z,98.59
2022-10-17T08:29:52.890Z,98.59
2022-10-17T08:34:56.545Z,98.21
2022-10-17T08:40:00.642Z,98.25
2022-10-17T08:45:15.547Z,98.20
2022-10-17T08:50:27.855Z,98.10
2022-10-17T08:55:38.853Z,97.93
2022-10-17T09:00:51.462Z,98.35
2022-10-17T09:06:03.139Z,98.08
2022-10-17T09:11:14.237Z,97.18
2022-10-17T09:16:34.203Z,96.84
2022-10-17T09:21:43.714Z,96.59
2022-10-17T09:26:47.889Z,96.48
2022-10-17T09:31:58.711Z,95.52
2022-10-17T09:37:03.058Z,95.38
2022-10-17T09:42:07.131Z,94.70
2022-10-17T09:47:27.031Z,94.87
2022-10-17T09:52:34.291Z,94.92
2022-10-17T10:03:18.671Z,94.81
2022-10-17T10:08:29.411Z,94.81
2022-10-17T10:13:34.083Z,94.10
2022-10-17T10:18:38.326Z,93.94
2022-10-17T10:23:43.166Z,93.15
2022-10-17T10:28:53.830Z,92.82
2022-10-17T10:34:00.079Z,92.44
2022-10-17T10:39:04.660Z,91.48
2022-10-17T10:44:07.652Z,91.31
2022-10-17T10:49:31.231Z,91.40
2022-10-17T10:59:52.782Z,90.59
2022-10-17T11:05:02.679Z,89.58
2022-10-17T11:10:13.338Z,89.73
2022-10-17T11:15:26.343Z,89.42
2022-10-17T11:20:45.086Z,89.67
2022-10-17T11:25:49.956Z,89.63
2022-10-17T11:30:58.696Z,90.00
2022-10-17T11:36:05.519Z,89.75
2022-10-17T11:41:13.113Z,89.75
2022-10-17T11:46:23.756Z,89.44
2022-10-17T11:57:14.052Z,89.37
2022-10-17T12:02:28.534Z,89.44
2022-10-17T12:12:51.335Z,88.35
2022-10-17T12:17:58.267Z,88.23
2022-10-17T12:23:20.100Z,88.21
2022-10-17T12:28:29.261Z,88.17
2022-10-17T12:33:38.784Z,88.40
2022-10-17T12:38:45.728Z,88.65
2022-10-17T12:43:52.544Z,88.51
2022-10-17T12:49:04.883Z,89.09
2022-10-17T12:54:15.988Z,88.64
2022-10-17T12:59:22.305Z,88.78
2022-10-17T13:04:26.729Z,88.62
2022-10-17T13:09:33.650Z,88.26
2022-10-17T13:14:38.770Z,88.49
2022-10-17T13:19:43.678Z,88.09
2022-10-17T13:24:49.188Z,88.82
2022-10-17T13:29:51.963Z,88.29
2022-10-17T13:35:07.253Z,88.77
2022-10-17T13:40:44.103Z,89.36
2022-10-17T13:45:48.575Z,89.20
2022-10-17T13:50:53.676Z,89.52
2022-10-17T13:56:26.297Z,89.76
2022-10-17T14:01:24.688Z,89.86
2022-10-17T14:06:29.005Z,90.53
2022-10-17T14:11:36.637Z,90.96
2022-10-17T14:16:42.271Z,90.98
2022-10-17T14:21:49.277Z,91.25
2022-10-17T14:26:55.013Z,91.33
2022-10-17T14:32:00.808Z,91.86
2022-10-17T14:37:09.642Z,91.79
2022-10-17T14:42:21.152Z,92.20
2022-10-17T14:47:42.609Z,92.14
2022-10-17T14:53:00.195Z,92.22
2022-10-17T14:58:17.703Z,92.59
2022-10-17T15:03:20.963Z,92.24
2022-10-17T15:08:24.978Z,92.41
2022-10-17T15:13:31.224Z,92.69
2022-10-17T15:18:36.598Z,92.72
2022-10-17T15:23:39.345Z,92.89
2022-10-17T15:28:44.003Z,93.00
2022-10-17T15:33:48.004Z,93.57
2022-10-17T15:38:52.333Z,94.01
2022-10-17T15:43:56.351Z,94.65
2022-10-17T15:49:04.749Z,94.88
2022-10-17T15:54:08.277Z,94.88
2022-10-17T15:59:16.701Z,95.30
2022-10-17T16:04:19.835Z,95.51
2022-10-17T16:09:22.552Z,96.00
2022-10-17T16:14:26.883Z,96.17
2022-10-17T16:19:30.136Z,96.78
2022-10-17T16:24:33.533Z,97.04
2022-10-17T16:29:37.675Z,97.48
2022-10-17T16:34:40.384Z,97.49
2022-10-17T16:39:43.378Z,97.44
2022-10-17T16:44:48.092Z,97.34
2022-10-17T16:49:50.909Z,97.31
2022-10-17T16:54:53.732Z,97.35
2022-10-17T16:59:58.015Z,97.34
2022-10-17T17:05:00.763Z,97.77
2022-10-17T17:10:03.615Z,97.92
2022-10-17T17:15:08.704Z,98.29
2022-10-17T17:20:11.555Z,98.58
2022-10-17T17:25:14.518Z,99.14
2022-10-17T17:30:18.775Z,99.62
2022-10-17T17:35:21.757Z,99.85
2022-10-17T17:40:24.501Z,100.00
2022-10-17T17:45:29.048Z,100.00
2022-10-17T17:50:32.828Z,100.00
2022-10-17T17:55:36.089Z,100.00
2022-10-17T18:00:41.511Z,100.00
2022-10-17T18:05:44.229Z,100.00
2022-10-17T18:10:49.495Z,100.00
2022-10-17T18:15:58.188Z,100.00
2022-10-17T18:21:02.802Z,100.00
2022-10-17T18:26:05.880Z,100.00
2022-10-17T18:31:13.200Z,100.00
2022-10-17T18:36:16.655Z,100.00
2022-10-17T18:41:21.316Z,100.00
2022-10-17T18:46:27.193Z,100.00
2022-10-17T18:51:30.061Z,100.00
2022-10-17T18:56:32.953Z,100.00
2022-10-17T19:01:37.112Z,100.00
2022-10-17T19:06:40.758Z,100.00
2022-10-17T19:11:43.643Z,100.00
2022-10-17T19:16:50.889Z,100.00
2022-10-17T19:21:54.146Z,100.00
2022-10-17T19:26:59.358Z,100.00
2022-10-17T19:32:03.604Z,100.00
2022-10-17T19:37:06.459Z,100.00
2022-10-17T19:42:09.197Z,100.00
2022-10-17T19:47:13.299Z,100.00
2022-10-17T19:52:16.016Z,100.00
2022-10-17T19:57:18.764Z,100.00
2022-10-17T20:02:22.860Z,100.00
2022-10-17T20:07:25.665Z,100.00
2022-10-17T20:12:28.693Z,100.00
2022-10-17T20:22:40.925Z,100.00
2022-10-17T20:27:43.716Z,100.00
2022-10-17T20:32:47.827Z,100.00
2022-10-17T20:37:50.936Z,100.00
2022-10-17T20:42:53.679Z,100.00
2022-10-17T20:47:58.225Z,100.00
2022-10-17T20:53:31.276Z,100.00
2022-10-17T20:58:24.104Z,100.00
2022-10-17T21:03:29.048Z,100.00
2022-10-17T21:08:31.965Z,100.00
2022-10-17T21:13:34.659Z,100.00
2022-10-17T21:18:39.249Z,100.00
2022-10-17T21:23:43.334Z,100.00
2022-10-17T21:28:47.629Z,100.00
2022-10-17T21:33:54.164Z,100.00
2022-10-17T21:38:58.051Z,100.00
2022-10-17T21:44:02.674Z,100.00
2022-10-17T21:49:06.818Z,100.00
2022-10-17T21:54:10.163Z,100.00
2022-10-17T21:59:13.201Z,100.00
2022-10-17T22:04:18.885Z,100.00
2022-10-17T22:09:25.046Z,100.00
2022-10-17T22:14:28.728Z,100.00
2022-10-17T22:19:32.857Z,100.00
2022-10-17T22:24:35.772Z,100.00
2022-10-17T22:29:39.609Z,100.00
2022-10-17T22:34:43.734Z,100.00
2022-10-17T22:39:46.431Z,100.00
2022-10-17T22:44:49.745Z,100.00
2022-10-17T22:49:53.861Z,100.00
2022-10-17T22:54:56.585Z,100.00
2022-10-17T22:59:59.270Z,100.00
2022-10-17T23:05:03.829Z,100.00
2022-10-17T23:10:07.974Z,100.00
2022-10-17T23:15:11.392Z,100.00
2022-10-17T23:20:15.516Z,100.00
2022-10-17T23:25:18.461Z,100.00
2022-10-17T23:30:21.454Z,100.00
2022-10-17T23:35:25.572Z,100.00
2022-10-17T23:40:28.418Z,100.00
2022-10-17T23:45:36.019Z,100.00
2022-10-17T23:50:41.135Z,100.00
2022-10-17T23:55:43.851Z,100.00
